Preview of NWS' New Version of Forecast
This preview is not operational and should not be used for support decisions.

Terminal Aerodrome Forecast (TAF)

Issued by National Weather Service (NWS)

                            
000
FTUS43 KDMX 210520
TAFALO
TAF
KALO 210520Z 2106/2206 13006KT P6SM FEW250
     FM211000 17011KT P6SM VCSH BKN025
     FM211500 19012G20KT 5SM -TSRA OVC008CB
     FM211600 19012G20KT P6SM VCSH OVC010
     FM212200 19014G26KT 6SM -TSRA OVC020CB
     FM220000 20012KT P6SM BKN050=